Time;durP1;ratioP1;P1;durP2;ratioP2;P2;SDS_P1;SDS_P2;PMS_P1;PMS_P2;Temp;Humidity;BMP_temperature;BMP_pressure;BME280_temperature;BME280_humidity;BME280_pressure;Samples;Min_cycle;Max_cycle;Signal;HPM_P1;HPM_P2
2022/04/25 00:02:22;;;;;;;0.60;0.10;;;10.80;1.00;;;;;;5056218;28;20454;-82
2022/04/25 00:04:50;;;;;;;0.60;0.20;;;10.80;1.00;;;;;;5071250;28;20467;-81
2022/04/25 00:07:19;;;;;;;2.40;2.20;;;10.80;1.00;;;;;;5075178;28;20437;-81
2022/04/25 00:09:47;;;;;;;0.60;0.10;;;10.80;1.00;;;;;;5071446;28;20469;-83
2022/04/25 00:12:15;;;;;;;0.60;0.10;;;10.80;1.00;;;;;;5072436;28;20469;-83
2022/04/25 00:14:43;;;;;;;0.60;0.20;;;10.70;1.00;;;;;;5062075;28;20534;-82
2022/04/25 00:17:11;;;;;;;0.60;0.20;;;10.70;1.00;;;;;;5073515;28;20515;-81
2022/04/25 00:19:40;;;;;;;0.60;0.10;;;10.70;1.00;;;;;;5079524;28;20513;-80
2022/04/25 00:22:08;;;;;;;0.60;0.10;;;10.60;1.00;;;;;;5073942;28;20867;-82
2022/04/25 00:24:37;;;;;;;0.60;0.10;;;10.60;1.00;;;;;;5062311;28;20488;-81
2022/04/25 00:27:05;;;;;;;0.60;0.10;;;10.50;1.00;;;;;;5062111;28;20450;-80
2022/04/25 00:29:34;;;;;;;0.60;0.10;;;;;;;;;;5065999;28;20482;-82
2022/04/25 00:32:02;;;;;;;0.60;0.10;;;10.60;1.00;;;;;;5070821;28;20442;-82
2022/04/25 00:34:30;;;;;;;2.57;0.80;;;10.60;1.00;;;;;;5065292;28;20430;-82
2022/04/25 00:36:58;;;;;;;0.60;0.20;;;10.60;1.00;;;;;;5061993;28;20466;-82
2022/04/25 00:39:27;;;;;;;0.90;0.20;;;10.60;1.00;;;;;;5076809;28;20428;-80
2022/04/25 00:41:57;;;;;;;0.70;0.43;;;;;;;;;;5077179;28;20422;-80
2022/04/25 00:44:25;;;;;;;0.60;0.10;;;10.60;1.00;;;;;;5074562;28;20474;-81
2022/04/25 00:46:55;;;;;;;0.67;0.33;;;10.60;1.00;;;;;;5063365;28;20458;-81
2022/04/25 00:49:23;;;;;;;0.60;0.20;;;10.70;1.00;;;;;;5073626;28;20478;-81
2022/04/25 00:51:52;;;;;;;0.73;0.30;;;;;;;;;;5070195;28;20533;-81
2022/04/25 00:54:21;;;;;;;0.60;0.10;;;10.70;1.00;;;;;;5070962;28;20422;-81
2022/04/25 00:56:50;;;;;;;1.60;1.50;;;10.70;1.00;;;;;;5071663;28;20549;-81
2022/04/25 00:59:21;;;;;;;0.60;0.10;;;10.70;1.00;;;;;;5070514;28;20565;-81
2022/04/25 01:01:51;;;;;;;0.60;0.10;;;10.70;1.00;;;;;;5068962;28;20457;-81
2022/04/25 01:04:21;;;;;;;0.60;0.10;;;10.70;1.00;;;;;;5078275;28;20470;-81
2022/04/25 01:06:49;;;;;;;0.60;0.10;;;10.70;1.00;;;;;;5085393;28;20461;-80
2022/04/25 01:09:17;;;;;;;0.60;0.10;;;10.70;1.00;;;;;;5084441;28;20904;-80
2022/04/25 01:11:45;;;;;;;0.60;0.10;;;10.70;1.00;;;;;;5088102;28;20441;-81
2022/04/25 01:14:14;;;;;;;0.60;0.10;;;10.70;1.00;;;;;;5084617;28;20526;-82
2022/04/25 01:16:44;;;;;;;0.60;0.10;;;10.70;1.00;;;;;;5053250;28;20463;-81
2022/04/25 01:19:13;;;;;;;2.73;0.60;;;;;;;;;;5052759;28;21143;-81
2022/04/25 01:21:44;;;;;;;0.60;0.20;;;10.70;1.00;;;;;;5076585;28;20517;-81
2022/04/25 01:27:17;;;;;;;2.00;1.73;;;10.60;1.00;;;;;;5069342;28;20446;-82
2022/04/25 01:29:47;;;;;;;0.60;0.10;;;10.60;1.00;;;;;;5057833;28;20547;-82
2022/04/25 01:32:16;;;;;;;0.60;0.20;;;10.50;1.00;;;;;;5061486;28;20471;-81
2022/04/25 01:34:45;;;;;;;2.80;0.53;;;;;;;;;;5041329;28;20439;-80
2022/04/25 01:37:14;;;;;;;2.60;1.00;;;10.40;1.00;;;;;;5050024;28;20466;-81
2022/04/25 01:39:45;;;;;;;1.07;1.03;;;;;;;;;;5060637;28;20450;-83
2022/04/25 01:42:14;;;;;;;1.27;1.17;;;10.30;1.00;;;;;;5063404;28;20486;-81
2022/04/25 01:44:43;;;;;;;0.87;0.40;;;10.30;1.00;;;;;;5060102;28;20508;-79
2022/04/25 01:47:12;;;;;;;0.60;0.10;;;10.30;1.00;;;;;;5064918;28;20510;-81
2022/04/25 01:49:40;;;;;;;0.60;0.10;;;10.30;1.00;;;;;;5062667;28;20455;-82
2022/04/25 01:52:19;;;;;;;0.60;0.20;;;10.20;1.00;;;;;;5062943;28;20446;-82
2022/04/25 01:54:49;;;;;;;0.63;0.27;;;10.20;1.00;;;;;;5061780;28;20800;-82
2022/04/25 01:57:17;;;;;;;2.60;2.40;;;10.20;1.00;;;;;;5061268;28;20506;-81
2022/04/25 01:59:46;;;;;;;0.60;0.20;;;10.20;1.00;;;;;;5044141;28;20438;-82
2022/04/25 02:02:14;;;;;;;1.33;1.23;;;10.20;1.00;;;;;;5060187;28;20470;-81
2022/04/25 02:04:43;;;;;;;0.60;0.13;;;10.20;1.00;;;;;;5058822;28;20478;-83
2022/04/25 02:07:12;;;;;;;0.80;0.40;;;10.20;1.00;;;;;;5059399;28;20518;-81
2022/04/25 02:09:40;;;;;;;1.47;0.67;;;;;;;;;;5067476;28;20473;-80
2022/04/25 02:12:10;;;;;;;1.17;0.50;;;;;;;;;;5077549;28;20454;-79
2022/04/25 02:14:40;;;;;;;0.63;0.37;;;10.10;1.00;;;;;;5077194;28;20446;-79
2022/04/25 02:17:09;;;;;;;1.63;1.30;;;10.10;1.00;;;;;;5068787;28;20529;-81
2022/04/25 02:19:38;;;;;;;2.97;0.77;;;10.00;1.00;;;;;;5058894;28;20469;-82
2022/04/25 02:22:07;;;;;;;0.80;0.20;;;;;;;;;;5058910;28;20453;-83
2022/04/25 02:24:35;;;;;;;0.70;0.40;;;;;;;;;;5058918;28;20515;-82
2022/04/25 02:27:04;;;;;;;3.23;3.03;;;10.00;1.00;;;;;;5059553;28;20506;-82
2022/04/25 02:29:34;;;;;;;0.73;0.50;;;9.90;1.00;;;;;;5061810;28;21107;-81
2022/04/25 02:32:03;;;;;;;0.60;0.10;;;10.00;1.00;;;;;;5060108;28;20875;-81
2022/04/25 02:34:32;;;;;;;6.30;2.43;;;10.00;1.00;;;;;;5059485;28;20438;-81
2022/04/25 02:37:01;;;;;;;1.77;1.07;;;10.30;1.00;;;;;;5058133;28;20430;-83
2022/04/25 02:39:29;;;;;;;0.90;0.77;;;9.90;1.00;;;;;;5057773;28;20816;-82
2022/04/25 02:41:57;;;;;;;0.60;0.10;;;9.90;1.00;;;;;;5058291;28;20514;-82
2022/04/25 02:44:25;;;;;;;0.60;0.20;;;9.90;1.00;;;;;;5057158;28;20489;-82
2022/04/25 02:46:54;;;;;;;2.30;0.90;;;9.90;1.00;;;;;;5059520;28;20556;-83
2022/04/25 02:49:23;;;;;;;0.60;0.27;;;;;;;;;;5068850;28;20561;-80
2022/04/25 02:51:51;;;;;;;3.30;3.03;;;9.90;1.00;;;;;;5073886;28;20474;-81
2022/04/25 02:54:19;;;;;;;0.60;0.20;;;9.90;1.00;;;;;;5073696;28;20473;-80
2022/04/25 02:56:47;;;;;;;1.13;1.03;;;9.90;1.00;;;;;;5071689;28;20546;-81
2022/04/25 02:59:15;;;;;;;0.80;0.30;;;9.80;1.00;;;;;;5058977;28;20434;-82
2022/04/25 03:01:43;;;;;;;0.80;0.20;;;9.80;1.00;;;;;;5057566;28;20522;-82
2022/04/25 03:04:13;;;;;;;0.60;0.30;;;;;;;;;;5065526;28;21200;-81
2022/04/25 03:06:41;;;;;;;0.60;0.10;;;;;;;;;;5065523;28;20498;-82
2022/04/25 03:09:09;;;;;;;0.60;0.10;;;9.80;1.00;;;;;;5058263;28;20458;-80
2022/04/25 03:11:37;;;;;;;0.60;0.10;;;9.70;1.00;;;;;;5057913;28;20510;-83
2022/04/25 03:14:05;;;;;;;0.60;0.10;;;9.80;1.00;;;;;;5058871;28;20898;-80
2022/04/25 03:16:33;;;;;;;0.60;0.10;;;9.80;1.00;;;;;;5057562;28;20458;-82
2022/04/25 03:19:04;;;;;;;0.60;0.13;;;9.90;1.00;;;;;;5056209;28;20470;-82
2022/04/25 03:21:34;;;;;;;0.60;0.20;;;9.80;1.00;;;;;;5056836;28;20482;-82
2022/04/25 03:24:02;;;;;;;0.60;0.10;;;9.90;1.00;;;;;;5056580;28;20542;-82
2022/04/25 03:26:30;;;;;;;0.60;0.10;;;9.90;1.00;;;;;;5055874;28;20474;-80
2022/04/25 03:28:58;;;;;;;0.60;0.10;;;10.00;1.00;;;;;;5057539;28;20448;-81
2022/04/25 03:31:27;;;;;;;0.60;0.20;;;9.90;1.00;;;;;;5057491;28;20877;-81
2022/04/25 03:33:55;;;;;;;0.60;0.10;;;9.90;1.00;;;;;;5063215;28;20783;-81
2022/04/25 03:36:23;;;;;;;0.60;0.10;;;10.00;1.00;;;;;;5080050;28;20445;-80
2022/04/25 03:38:53;;;;;;;0.60;0.37;;;;;;;;;;5079484;28;20446;-82
2022/04/25 03:41:22;;;;;;;0.60;0.10;;;10.00;1.00;;;;;;5067601;28;20461;-82
2022/04/25 03:43:49;;;;;;;0.60;0.10;;;10.00;1.00;;;;;;5067042;28;21038;-81
2022/04/25 03:46:17;;;;;;;0.60;0.10;;;10.00;1.00;;;;;;5073256;28;20561;-81
2022/04/25 03:48:45;;;;;;;0.60;0.10;;;10.00;1.00;;;;;;5077653;28;20442;-82
2022/04/25 03:51:14;;;;;;;4.23;3.80;;;10.00;1.00;;;;;;5083130;28;20477;-81
2022/04/25 03:53:42;;;;;;;0.60;0.10;;;10.10;1.00;;;;;;5082509;28;20445;-80
2022/04/25 03:58:56;;;;;;;0.60;0.10;;;10.20;1.00;;;;;;5067934;28;20521;-81
2022/04/25 04:01:24;;;;;;;1.57;0.67;;;10.20;1.00;;;;;;5067356;28;20956;-82
2022/04/25 04:03:53;;;;;;;0.60;0.10;;;10.20;1.00;;;;;;5064668;28;20474;-82
2022/04/25 04:06:27;;;;;;;0.60;0.10;;;10.20;1.00;;;;;;5064719;28;20473;-81
2022/04/25 04:08:55;;;;;;;0.60;0.10;;;10.20;1.00;;;;;;5078685;28;20454;-81
2022/04/25 04:11:46;;;;;;;0.60;0.10;;;10.20;1.00;;;;;;5081429;28;20426;-79
2022/04/25 04:14:13;;;;;;;0.60;0.10;;;10.20;1.00;;;;;;5072887;28;20497;-82
2022/04/25 04:16:42;;;;;;;0.60;0.10;;;10.20;1.00;;;;;;5074073;28;20456;-82
2022/04/25 04:19:10;;;;;;;0.60;0.10;;;10.20;1.00;;;;;;5074452;28;20468;-81
2022/04/25 04:21:38;;;;;;;0.60;0.10;;;10.40;1.00;;;;;;5081317;28;20458;-80
2022/04/25 04:24:09;;;;;;;0.60;0.10;;;10.40;1.00;;;;;;5082247;28;20477;-80
2022/04/25 04:26:39;;;;;;;0.60;0.10;;;10.40;1.00;;;;;;5077956;28;20473;-80
2022/04/25 04:29:07;;;;;;;0.60;0.10;;;10.30;1.00;;;;;;5067006;28;20458;-81
2022/04/25 04:31:35;;;;;;;0.60;0.10;;;10.40;1.00;;;;;;5064127;28;20948;-81
2022/04/25 04:34:03;;;;;;;0.60;0.10;;;10.40;1.00;;;;;;5068247;28;20458;-81
2022/04/25 04:36:31;;;;;;;0.60;0.10;;;10.40;1.00;;;;;;5074995;28;20441;-81
2022/04/25 04:38:59;;;;;;;0.60;0.10;;;10.40;1.00;;;;;;5074987;28;20517;-81
2022/04/25 04:41:27;;;;;;;0.60;0.10;;;10.50;1.00;;;;;;5071818;28;20457;-82
2022/04/25 04:43:57;;;;;;;0.60;0.10;;;10.50;1.00;;;;;;5066028;28;20573;-80
2022/04/25 04:46:26;;;;;;;0.60;0.20;;;10.50;1.00;;;;;;5069159;28;20469;-79
2022/04/25 04:48:54;;;;;;;1.23;0.93;;;10.50;1.00;;;;;;5072947;28;20441;-80
2022/04/25 04:51:22;;;;;;;0.90;0.73;;;10.40;1.00;;;;;;5060914;28;20450;-81
2022/04/25 04:53:50;;;;;;;1.47;0.63;;;10.40;1.00;;;;;;5060514;28;20553;-79
2022/04/25 04:56:18;;;;;;;0.70;0.40;;;10.30;1.00;;;;;;5061656;28;20553;-80
2022/04/25 04:58:46;;;;;;;0.60;0.10;;;10.30;1.00;;;;;;5059894;28;20507;-80
2022/04/25 05:01:15;;;;;;;0.60;0.20;;;;;;;;;;5063136;28;20446;-80
2022/04/25 05:03:44;;;;;;;0.60;0.27;;;10.30;1.00;;;;;;5071033;28;20528;-80
2022/04/25 05:06:12;;;;;;;0.60;0.10;;;10.30;1.00;;;;;;5059604;28;20568;-80
2022/04/25 05:08:40;;;;;;;0.60;0.10;;;10.30;1.00;;;;;;5061120;28;20434;-80
2022/04/25 05:11:10;;;;;;;0.60;0.10;;;10.40;1.00;;;;;;5060990;28;20450;-80
2022/04/25 05:13:38;;;;;;;0.60;0.10;;;10.40;1.00;;;;;;5059433;28;20469;-79
2022/04/25 05:16:06;;;;;;;0.60;0.10;;;10.50;1.00;;;;;;5060598;28;20577;-81
2022/04/25 05:18:36;;;;;;;0.60;0.10;;;;;;;;;;5060293;28;20450;-79
2022/04/25 05:21:05;;;;;;;0.60;0.10;;;10.70;1.00;;;;;;5061609;28;20451;-81
2022/04/25 05:23:33;;;;;;;0.60;0.10;;;10.80;1.00;;;;;;5060931;28;20454;-80
2022/04/25 05:26:01;;;;;;;0.60;0.10;;;10.80;1.00;;;;;;5059759;28;20450;-79
2022/04/25 05:28:31;;;;;;;0.60;0.10;;;;;;;;;;5060469;28;20521;-79
2022/04/25 05:31:00;;;;;;;0.60;0.10;;;;;;;;;;5060625;28;20434;-80
2022/04/25 05:33:28;;;;;;;0.60;0.10;;;11.10;1.00;;;;;;5062461;28;20463;-79
2022/04/25 05:35:58;;;;;;;0.60;0.10;;;11.10;1.00;;;;;;5060867;28;20450;-82
2022/04/25 05:38:26;;;;;;;0.60;0.10;;;11.20;1.00;;;;;;5067322;28;20542;-79
2022/04/25 05:40:55;;;;;;;0.60;0.10;;;11.30;1.00;;;;;;5063552;28;20524;-80
2022/04/25 05:43:25;;;;;;;0.60;0.20;;;11.30;1.00;;;;;;5059043;28;20481;-82
2022/04/25 05:45:53;;;;;;;0.60;0.10;;;11.30;1.00;;;;;;5059361;28;20866;-82
2022/04/25 05:53:54;;;;;;;0.60;0.10;;;11.30;1.00;;;;;;5068867;28;20450;-82
2022/04/25 05:56:22;;;;;;;0.60;0.13;;;11.30;1.00;;;;;;5073900;28;20431;-84
2022/04/25 05:58:51;;;;;;;0.70;0.40;;;11.30;1.00;;;;;;5077609;28;20466;-82
2022/04/25 06:01:19;;;;;;;0.60;0.47;;;11.20;1.00;;;;;;5075383;28;20518;-81
2022/04/25 06:03:47;;;;;;;1.20;0.60;;;11.20;1.00;;;;;;5072126;28;20541;-79
2022/04/25 06:06:20;;;;;;;0.60;0.10;;;11.20;1.00;;;;;;5057118;28;20461;-77
2022/04/25 06:08:51;;;;;;;0.70;0.40;;;11.20;1.00;;;;;;5059094;28;20446;-78
2022/04/25 06:11:21;;;;;;;5.40;5.10;;;11.30;1.00;;;;;;5059041;28;20862;-83
2022/04/25 06:13:51;;;;;;;0.60;0.10;;;11.30;1.00;;;;;;5063508;28;20500;-82
2022/04/25 06:16:18;;;;;;;8.33;7.77;;;11.30;1.00;;;;;;5063460;28;20519;-83
2022/04/25 06:18:46;;;;;;;0.90;0.70;;;11.40;1.00;;;;;;5064924;28;20449;-81
2022/04/25 06:21:14;;;;;;;0.60;0.30;;;11.50;1.00;;;;;;5074750;28;20419;-80
2022/04/25 06:23:44;;;;;;;0.60;0.10;;;;;;;;;;5076756;28;20521;-80
2022/04/25 06:26:12;;;;;;;0.60;0.10;;;;;;;;;;5069334;28;20465;-81
2022/04/25 06:28:41;;;;;;;0.60;0.10;;;;;;;;;;5067045;28;20543;-75
2022/04/25 06:31:09;;;;;;;0.60;0.20;;;11.70;1.00;;;;;;5059762;28;20465;-75
2022/04/25 06:33:38;;;;;;;0.60;0.20;;;12.00;1.00;;;;;;5057556;28;20467;-75
2022/04/25 06:36:07;;;;;;;0.60;0.17;;;12.30;1.00;;;;;;5057508;28;20447;-74
2022/04/25 06:38:35;;;;;;;0.60;0.20;;;12.60;1.00;;;;;;5058217;28;20514;-75
2022/04/25 06:41:04;;;;;;;0.60;0.10;;;12.70;1.00;;;;;;5065117;28;20474;-77
2022/04/25 06:43:32;;;;;;;3.60;3.47;;;13.00;1.00;;;;;;5058259;28;20483;-74
2022/04/25 06:46:03;;;;;;;0.60;0.20;;;13.40;1.00;;;;;;5055903;28;20533;-77
2022/04/25 06:48:34;;;;;;;0.70;0.50;;;13.50;1.00;;;;;;5056419;28;20589;-77
2022/04/25 06:51:02;;;;;;;0.60;0.17;;;13.50;1.00;;;;;;5057580;28;20475;-81
2022/04/25 06:53:31;;;;;;;0.60;0.10;;;;;;;;;;5062061;28;20579;-82
2022/04/25 06:55:59;;;;;;;0.60;0.10;;;13.70;1.00;;;;;;5059359;28;20526;-82
2022/04/25 06:58:29;;;;;;;0.60;0.10;;;;;;;;;;5063024;28;20468;-83
2022/04/25 07:00:59;;;;;;;0.60;0.10;;;13.80;1.00;;;;;;5062862;28;20530;-82
2022/04/25 07:03:31;;;;;;;0.60;0.20;;;13.70;1.00;;;;;;5056585;28;20467;-82
2022/04/25 07:05:59;;;;;;;0.60;0.10;;;13.60;1.00;;;;;;5058231;28;20962;-81
2022/04/25 07:08:28;;;;;;;0.60;0.20;;;13.70;1.00;;;;;;5053888;28;21025;-81
2022/04/25 07:10:56;;;;;;;0.60;0.10;;;;;;;;;;5060472;28;20436;-81
2022/04/25 07:13:24;;;;;;;2.37;2.00;;;13.60;1.00;;;;;;5060224;28;20938;-84
2022/04/25 07:15:54;;;;;;;0.60;0.10;;;;;;;;;;5044639;28;20452;-82
2022/04/25 07:18:23;;;;;;;0.70;0.40;;;13.50;1.00;;;;;;5062172;28;20442;-79
2022/04/25 07:20:51;;;;;;;0.80;0.63;;;13.40;1.00;;;;;;5059467;28;20793;-81
2022/04/25 07:28:52;;;;;;;2.60;2.00;;;13.40;1.00;;;;;;5058589;28;20510;-80
2022/04/25 07:31:22;;;;;;;1.33;1.23;;;;;;;;;;5058598;28;20461;-80
2022/04/25 07:33:50;;;;;;;0.80;0.30;;;13.30;1.00;;;;;;5060106;28;20574;-79
2022/04/25 07:36:21;;;;;;;1.17;1.07;;;13.40;1.00;;;;;;5059271;28;20447;-77
2022/04/25 07:38:49;;;;;;;1.33;0.67;;;;;;;;;;5058710;28;20455;-80
2022/04/25 07:41:17;;;;;;;0.63;0.27;;;13.60;1.00;;;;;;5051544;28;20482;-80
2022/04/25 07:43:46;;;;;;;2.00;1.90;;;13.60;1.00;;;;;;5047571;28;20535;-79
2022/04/25 07:46:17;;;;;;;1.00;0.90;;;13.60;1.00;;;;;;5069321;28;20459;-80
2022/04/25 07:48:53;;;;;;;0.60;0.20;;;13.60;1.00;;;;;;5068627;28;20467;-80
2022/04/25 07:51:21;;;;;;;0.67;0.37;;;13.70;1.00;;;;;;5066331;28;20511;-80
2022/04/25 07:53:49;;;;;;;0.60;0.10;;;13.70;1.00;;;;;;5070300;28;20497;-80
2022/04/25 07:56:17;;;;;;;1.27;0.60;;;13.80;1.00;;;;;;5052500;28;20449;-81
2022/04/25 07:58:45;;;;;;;0.60;0.10;;;13.80;1.00;;;;;;5060174;28;20463;-79
2022/04/25 08:01:14;;;;;;;0.60;0.10;;;13.90;1.00;;;;;;5068799;28;20455;-78
2022/04/25 08:03:42;;;;;;;1.00;0.60;;;14.00;1.00;;;;;;5067967;28;20484;-79
2022/04/25 08:06:12;;;;;;;0.60;0.10;;;14.10;1.00;;;;;;5065645;28;20502;-83
2022/04/25 08:08:40;;;;;;;0.60;0.10;;;14.10;1.00;;;;;;5064272;28;20472;-83
2022/04/25 08:11:08;;;;;;;0.70;0.40;;;14.10;1.00;;;;;;5061810;28;20460;-83
2022/04/25 08:19:07;;;;;;;0.60;0.10;;;14.20;1.00;;;;;;5073032;28;20484;-81
2022/04/25 08:21:38;;;;;;;0.60;0.20;;;;;;;;;;5078740;28;20432;-79
2022/04/25 08:24:06;;;;;;;0.70;0.30;;;;;;;;;;5079012;28;21083;-79
2022/04/25 08:26:35;;;;;;;2.43;2.27;;;;;;;;;;5075836;28;20535;-80
2022/04/25 08:29:03;;;;;;;0.70;0.37;;;;;;;;;;5076434;28;20468;-79
2022/04/25 08:31:33;;;;;;;0.60;0.20;;;13.80;1.00;;;;;;5073553;28;20460;-82
2022/04/25 08:34:02;;;;;;;0.87;0.87;;;13.70;1.00;;;;;;5077117;28;20472;-79
2022/04/25 08:36:31;;;;;;;0.60;0.10;;;;;;;;;;5078390;28;20458;-81
2022/04/25 08:39:01;;;;;;;0.60;0.13;;;13.90;1.00;;;;;;5078545;28;20444;-77
2022/04/25 08:41:32;;;;;;;0.60;0.33;;;13.90;1.00;;;;;;5077258;28;20508;-79
2022/04/25 08:44:01;;;;;;;1.13;1.03;;;13.90;1.00;;;;;;5071166;28;20482;-82
2022/04/25 08:46:32;;;;;;;0.60;0.10;;;14.00;1.00;;;;;;5063671;28;20459;-82
2022/04/25 08:49:03;;;;;;;0.60;0.10;;;14.00;1.00;;;;;;5063547;28;20475;-83
2022/04/25 08:51:35;;;;;;;0.70;0.33;;;14.10;1.00;;;;;;5067875;28;20489;-80
2022/04/25 08:54:08;;;;;;;0.80;0.60;;;14.20;1.00;;;;;;5076263;28;20458;-81
2022/04/25 08:56:37;;;;;;;0.60;0.10;;;14.40;1.00;;;;;;5079533;28;20441;-79
2022/04/25 08:59:08;;;;;;;0.60;0.10;;;14.60;1.00;;;;;;5075069;28;20532;-82
2022/04/25 09:01:40;;;;;;;0.60;0.10;;;14.70;1.00;;;;;;5072516;28;20451;-80
2022/04/25 09:04:09;;;;;;;0.70;0.30;;;14.80;99.90;;;;;;5079322;28;20486;-77
2022/04/25 09:06:37;;;;;;;1.00;0.57;;;14.90;99.90;;;;;;5078504;28;20437;-81
2022/04/25 09:09:06;;;;;;;0.60;0.10;;;15.00;99.90;;;;;;5076980;28;20471;-80
2022/04/25 09:14:22;;;;;;;0.60;0.10;;;15.20;99.90;;;;;;5058378;28;20542;-82
2022/04/25 09:16:50;;;;;;;0.60;0.10;;;15.20;99.90;;;;;;5077912;28;20457;-78
2022/04/25 09:19:21;;;;;;;0.60;0.10;;;15.40;99.90;;;;;;5078859;28;20431;-78
2022/04/25 09:21:49;;;;;;;0.60;0.10;;;15.50;99.90;;;;;;5078395;28;20501;-81
2022/04/25 09:24:27;;;;;;;0.60;0.10;;;15.60;99.90;;;;;;5078893;28;20526;-81
2022/04/25 09:27:12;;;;;;;0.60;0.10;;;15.60;99.90;;;;;;5078922;28;20511;-80
2022/04/25 09:29:41;;;;;;;0.60;0.10;;;15.70;99.90;;;;;;5079242;28;20482;-79
2022/04/25 09:32:10;;;;;;;0.60;0.10;;;16.00;99.90;;;;;;5077506;28;20709;-81
2022/04/25 09:37:49;;;;;;;0.60;0.10;;;16.10;99.90;;;;;;5076591;28;20821;-82
2022/04/25 09:40:22;;;;;;;0.60;0.10;;;16.20;99.90;;;;;;5056831;28;20578;-82
2022/04/25 09:43:04;;;;;;;0.60;0.10;;;16.40;99.90;;;;;;5068301;28;20527;-82
2022/04/25 09:45:37;;;;;;;1.57;1.30;;;16.50;99.90;;;;;;5074901;28;20451;-82
2022/04/25 09:48:10;;;;;;;0.60;0.10;;;;;;;;;;5070722;28;20426;-80
2022/04/25 09:50:39;;;;;;;0.60;0.17;;;16.90;99.90;;;;;;5075657;28;20453;-82
2022/04/25 09:53:16;;;;;;;0.60;0.10;;;;;;;;;;5077473;28;20479;-81
2022/04/25 09:55:46;;;;;;;0.60;0.10;;;17.20;99.90;;;;;;5077119;28;20514;-81
2022/04/25 09:58:17;;;;;;;0.60;0.20;;;17.20;99.90;;;;;;5074876;28;20447;-80
2022/04/25 10:00:50;;;;;;;0.60;0.10;;;17.20;99.90;;;;;;5076383;28;20423;-79
2022/04/25 10:03:18;;;;;;;0.60;0.30;;;17.00;99.90;;;;;;5076755;28;20459;-80
2022/04/25 10:05:48;;;;;;;0.60;0.10;;;17.00;99.90;;;;;;5076477;28;20439;-81
2022/04/25 10:08:17;;;;;;;0.60;0.10;;;16.90;99.90;;;;;;5072348;28;20446;-81
2022/04/25 10:10:49;;;;;;;0.60;0.10;;;17.00;99.90;;;;;;5077065;28;20493;-80
2022/04/25 10:13:18;;;;;;;0.60;0.10;;;17.20;99.90;;;;;;5076871;28;20453;-81
2022/04/25 10:15:47;;;;;;;0.60;0.10;;;17.30;99.90;;;;;;5076051;28;20494;-81
2022/04/25 10:18:16;;;;;;;0.80;0.30;;;17.40;99.90;;;;;;5069489;28;20446;-80
2022/04/25 10:20:46;;;;;;;0.60;0.10;;;17.50;99.90;;;;;;5065264;28;20549;-79
2022/04/25 10:23:17;;;;;;;0.60;0.10;;;17.60;99.90;;;;;;5067939;28;20470;-79
2022/04/25 10:25:51;;;;;;;0.60;0.10;;;17.70;99.90;;;;;;5062822;28;20548;-80
2022/04/25 10:28:25;;;;;;;0.60;0.10;;;17.70;99.90;;;;;;5060031;28;20835;-80
2022/04/25 10:30:58;;;;;;;0.70;0.40;;;17.70;99.90;;;;;;5063826;28;20476;-78
2022/04/25 10:33:28;;;;;;;0.60;0.10;;;17.80;99.90;;;;;;5062581;28;20528;-80
2022/04/25 10:35:56;;;;;;;0.60;0.10;;;18.20;99.90;;;;;;5061928;28;20456;-79
2022/04/25 10:38:49;;;;;;;0.70;0.43;;;18.50;99.90;;;;;;5060283;28;20552;-79
2022/04/25 10:44:46;;;;;;;0.60;0.20;;;18.70;99.90;;;;;;5066809;28;20489;-78
2022/04/25 10:47:17;;;;;;;0.60;0.10;;;19.10;99.90;;;;;;5073836;28;20463;-80
2022/04/25 10:49:48;;;;;;;0.60;0.20;;;19.10;99.90;;;;;;5071140;28;20505;-80
2022/04/25 10:52:57;;;;;;;0.60;0.10;;;19.30;99.90;;;;;;5072359;28;20486;-80
2022/04/25 10:55:46;;;;;;;0.60;0.20;;;;;;;;;;5069781;28;20442;-81
2022/04/25 10:58:58;;;;;;;0.60;0.10;;;;;;;;;;5065380;28;20840;-81
2022/04/25 11:01:52;;;;;;;0.60;0.10;;;;;;;;;;5022416;28;20487;-78
2022/04/25 11:04:25;;;;;;;0.60;0.10;;;;;;;;;;5054424;28;20449;-82
2022/04/25 11:07:25;;;;;;;0.60;0.10;;;18.60;99.90;;;;;;5073257;28;20438;-80
2022/04/25 11:09:55;;;;;;;0.60;0.10;;;17.10;99.90;;;;;;5072067;28;20491;-81
2022/04/25 11:12:59;;;;;;;0.60;0.30;;;18.70;99.90;;;;;;5072718;28;20477;-81
2022/04/25 11:15:40;;;;;;;0.60;0.20;;;18.60;99.90;;;;;;5074944;28;20485;-82
2022/04/25 11:18:30;;;;;;;0.60;0.10;;;18.50;99.90;;;;;;5073921;28;20426;-80
2022/04/25 11:21:04;;;;;;;0.70;0.40;;;18.70;99.90;;;;;;5074657;28;20432;-79
2022/04/25 11:23:34;;;;;;;0.60;0.40;;;18.80;99.90;;;;;;5075069;28;20489;-79
2022/04/25 11:26:10;;;;;;;0.60;0.10;;;;;;;;;;5069915;28;20496;-80
2022/04/25 11:29:08;;;;;;;0.60;0.10;;;18.80;99.90;;;;;;5073512;28;20446;-80
2022/04/25 11:31:37;;;;;;;0.60;0.10;;;18.70;99.90;;;;;;5075720;28;20451;-78
2022/04/25 11:34:11;;;;;;;0.60;0.20;;;18.50;99.90;;;;;;5069016;28;20450;-81
2022/04/25 11:36:41;;;;;;;0.60;0.20;;;18.30;99.90;;;;;;5068033;28;20443;-81
2022/04/25 11:41:55;;;;;;;0.70;0.47;;;18.10;99.90;;;;;;5064510;28;20455;-81
2022/04/25 11:44:23;;;;;;;0.60;0.13;;;18.00;99.90;;;;;;5062877;28;20566;-79
2022/04/25 11:46:55;;;;;;;0.60;0.10;;;17.80;99.90;;;;;;5065043;28;20442;-79
2022/04/25 11:49:37;;;;;;;0.60;0.10;;;17.90;99.90;;;;;;5062227;28;21134;-82
2022/04/25 11:52:06;;;;;;;0.60;0.10;;;;;;;;;;5062525;28;20433;-79
2022/04/25 11:54:34;;;;;;;0.60;0.10;;;18.10;99.90;;;;;;5064073;28;20446;-81
2022/04/25 11:57:03;;;;;;;0.60;0.10;;;18.10;99.90;;;;;;5066697;28;20544;-79
2022/04/25 11:59:34;;;;;;;0.70;0.30;;;18.00;99.90;;;;;;5071076;28;20508;-81
2022/04/25 12:02:04;;;;;;;0.60;0.10;;;;;;;;;;5071598;28;20457;-80
2022/04/25 12:04:47;;;;;;;0.60;0.20;;;;;;;;;;5069207;28;20545;-83
2022/04/25 12:20:02;;;;;;;0.60;0.10;;;;;;;;;;5049500;28;20454;-83
2022/04/25 12:23:07;;;;;;;0.60;0.10;;;;;;;;;;5057531;28;20498;-77
2022/04/25 12:25:44;;;;;;;0.60;0.10;;;;;;;;;;5061078;28;20441;-77
2022/04/25 12:28:23;;;;;;;0.60;0.10;;;;;;;;;;5061164;28;20445;-79
2022/04/25 12:34:12;;;;;;;0.80;0.60;;;;;;;;;;5058210;28;21001;-79
2022/04/25 12:36:53;;;;;;;0.60;0.10;;;;;;;;;;5060690;28;20541;-77
2022/04/25 12:42:54;;;;;;;0.60;0.10;;;;;;;;;;5024415;28;20488;-79
2022/04/25 12:45:24;;;;;;;0.93;0.30;;;;;;;;;;5063840;28;20473;-81
2022/04/25 12:47:59;;;;;;;0.60;0.10;;;18.90;99.90;;;;;;5063334;28;20459;-80
2022/04/25 12:50:48;;;;;;;0.60;0.10;;;;;;;;;;5072132;28;20484;-82
2022/04/25 12:53:18;;;;;;;0.60;0.10;;;19.40;99.90;;;;;;5067741;28;21091;-83
2022/04/25 12:55:50;;;;;;;0.60;0.10;;;19.60;99.90;;;;;;5067670;28;20442;-81
2022/04/25 12:58:21;;;;;;;0.80;0.57;;;;;;;;;;5066741;28;20449;-83
2022/04/25 13:00:52;;;;;;;0.60;0.10;;;;;;;;;;5064498;28;20481;-80
2022/04/25 13:04:17;;;;;;;0.60;0.10;;;19.50;99.90;;;;;;5066397;28;20914;-79
2022/04/25 13:07:09;;;;;;;0.60;0.10;;;;;;;;;;5071841;28;20455;-80
2022/04/25 13:09:39;;;;;;;0.60;0.10;;;;;;;;;;5074560;28;20442;-80
2022/04/25 13:12:20;;;;;;;0.60;0.10;;;;;;;;;;5066608;28;20430;-78
2022/04/25 13:15:02;;;;;;;0.67;0.20;;;;;;;;;;5060011;28;20448;-80
2022/04/25 13:17:38;;;;;;;0.60;0.20;;;;;;;;;;5058515;28;20440;-81
2022/04/25 13:20:10;;;;;;;0.60;0.20;;;;;;;;;;5063035;28;20476;-80
2022/04/25 13:22:49;;;;;;;0.60;0.10;;;;;;;;;;5060012;28;20809;-80
2022/04/25 13:25:23;;;;;;;0.60;0.10;;;20.20;99.90;;;;;;5062295;28;20468;-80
2022/04/25 13:27:55;;;;;;;0.60;0.10;;;20.20;99.90;;;;;;5063232;28;20437;-80
2022/04/25 13:30:27;;;;;;;0.60;0.10;;;;;;;;;;5063621;28;20473;-80
2022/04/25 13:32:58;;;;;;;0.70;0.20;;;;;;;;;;5065328;28;20553;-83
2022/04/25 13:35:29;;;;;;;0.70;0.63;;;19.80;99.90;;;;;;5063824;28;21201;-81
2022/04/25 13:37:58;;;;;;;0.60;0.10;;;;;;;;;;5062924;28;20466;-80
2022/04/25 13:40:28;;;;;;;0.80;0.50;;;;;;;;;;5062925;28;20449;-81
2022/04/25 13:42:57;;;;;;;0.70;0.20;;;;;;;;;;5064322;28;20540;-81
2022/04/25 13:45:29;;;;;;;0.60;0.10;;;;;;;;;;5062439;28;20454;-82
2022/04/25 13:48:09;;;;;;;0.60;0.10;;;;;;;;;;5062972;28;20643;-81
2022/04/25 13:50:38;;;;;;;0.60;0.27;;;;;;;;;;5062952;28;20534;-79
2022/04/25 13:53:07;;;;;;;0.60;0.10;;;;;;;;;;5063216;28;20481;-82
2022/04/25 13:55:40;;;;;;;0.60;0.20;;;;;;;;;;5064237;28;20819;-83
2022/04/25 13:58:10;;;;;;;0.60;0.20;;;18.50;99.90;;;;;;5070367;28;20429;-79
2022/04/25 14:00:39;;;;;;;0.60;0.10;;;18.50;99.90;;;;;;5078019;28;20430;-79
2022/04/25 14:03:17;;;;;;;0.70;0.40;;;18.50;99.90;;;;;;5073187;28;20466;-80
2022/04/25 14:05:48;;;;;;;0.60;0.10;;;18.60;99.90;;;;;;5064884;28;20437;-81
2022/04/25 14:08:24;;;;;;;0.60;0.20;;;;;;;;;;5065086;28;20517;-82
2022/04/25 14:10:55;;;;;;;0.60;0.10;;;;;;;;;;5064488;28;20541;-82
2022/04/25 14:13:26;;;;;;;0.60;0.20;;;19.10;99.90;;;;;;5063215;28;20466;-83
2022/04/25 14:15:56;;;;;;;0.60;0.10;;;;;;;;;;5070093;28;20442;-80
2022/04/25 14:18:26;;;;;;;0.60;0.20;;;;;;;;;;5074014;28;20438;-81
2022/04/25 14:20:54;;;;;;;0.60;0.20;;;19.50;99.90;;;;;;5073854;28;20454;-81
2022/04/25 14:23:22;;;;;;;7.90;0.80;;;19.80;99.90;;;;;;5063267;28;20470;-81
2022/04/25 14:25:50;;;;;;;0.70;0.40;;;19.80;99.90;;;;;;5060355;28;20441;-81
2022/04/25 14:28:18;;;;;;;0.60;0.20;;;20.00;99.90;;;;;;5061328;28;20450;-82
2022/04/25 14:30:46;;;;;;;0.60;0.10;;;20.00;99.90;;;;;;5061252;28;20459;-81
2022/04/25 14:33:15;;;;;;;1.90;1.17;;;20.10;99.90;;;;;;5062203;28;20477;-81